createdAt,value
2024-05-09T00:00:18.442Z,3.40
2024-05-09T00:05:19.056Z,2.80
2024-05-09T00:10:18.214Z,3.90
2024-05-09T00:15:18.061Z,3.20
2024-05-09T00:20:17.593Z,3.10
2024-05-09T00:25:16.660Z,3.00
2024-05-09T00:30:14.375Z,2.80
2024-05-09T00:35:10.290Z,3.40
2024-05-09T00:40:03.550Z,3.50
2024-05-09T00:44:56.238Z,3.00
2024-05-09T00:49:49.141Z,3.00
2024-05-09T00:54:41.986Z,3.40
2024-05-09T00:59:34.959Z,3.00
2024-05-09T01:04:27.558Z,3.70
2024-05-09T01:09:20.260Z,2.80
2024-05-09T01:14:12.983Z,3.40
2024-05-09T01:19:19.841Z,3.00
2024-05-09T01:24:13.070Z,2.70
2024-05-09T01:29:05.682Z,2.60
2024-05-09T01:33:58.350Z,3.50
2024-05-09T01:38:51.006Z,2.90
2024-05-09T01:43:43.817Z,3.00
2024-05-09T01:48:36.657Z,2.90
2024-05-09T01:53:29.466Z,3.00
2024-05-09T01:58:22.121Z,3.20
2024-05-09T02:03:16.984Z,2.80
2024-05-09T02:08:18.164Z,3.20
2024-05-09T02:13:11.425Z,2.90
2024-05-09T02:18:04.507Z,3.20
2024-05-09T02:23:00.647Z,3.40
2024-05-09T02:27:53.845Z,2.70
2024-05-09T02:32:47.064Z,3.60
2024-05-09T02:37:40.097Z,2.80
2024-05-09T02:42:32.728Z,2.50
2024-05-09T02:47:25.456Z,3.20
2024-05-09T02:52:19.866Z,2.80
2024-05-09T02:57:12.461Z,3.10
2024-05-09T03:02:05.344Z,3.10
2024-05-09T03:06:58.142Z,3.10
2024-05-09T03:11:50.977Z,3.40
2024-05-09T03:16:43.653Z,3.20
2024-05-09T03:21:40.746Z,3.30
2024-05-09T03:26:33.410Z,3.00
2024-05-09T03:31:26.154Z,3.20
2024-05-09T03:36:18.767Z,3.10
2024-05-09T03:41:11.479Z,3.20
2024-05-09T03:46:04.116Z,2.90
2024-05-09T03:50:56.757Z,3.20
2024-05-09T03:55:49.382Z,3.00
2024-05-09T04:00:42.979Z,3.20
2024-05-09T04:05:35.815Z,3.30
2024-05-09T04:10:33.426Z,3.00
2024-05-09T04:15:27.634Z,3.00
2024-05-09T04:20:32.833Z,3.10
2024-05-09T04:25:32.910Z,3.00
2024-05-09T04:30:34.618Z,3.10
2024-05-09T04:35:31.548Z,2.90
2024-05-09T04:40:31.420Z,2.60
2024-05-09T04:45:27.676Z,3.10
2024-05-09T04:50:29.385Z,2.00
2024-05-09T04:55:28.372Z,2.40
2024-05-09T05:00:28.916Z,2.60
2024-05-09T05:05:28.151Z,2.90
2024-05-09T05:10:25.521Z,3.10
2024-05-09T05:15:22.496Z,2.90
2024-05-09T05:20:17.810Z,3.20
2024-05-09T05:25:14.045Z,3.20
2024-05-09T05:30:11.899Z,3.00
2024-05-09T05:35:07.664Z,2.80
2024-05-09T05:40:00.278Z,2.90
2024-05-09T05:44:52.833Z,2.80
2024-05-09T05:49:45.460Z,3.20
2024-05-09T05:54:38.031Z,2.90
2024-05-09T05:59:30.652Z,2.80
2024-05-09T06:04:23.318Z,2.70
2024-05-09T06:09:15.963Z,2.40
2024-05-09T06:14:09.947Z,2.90
2024-05-09T06:19:02.590Z,2.50
2024-05-09T06:23:55.173Z,2.50
2024-05-09T06:28:47.857Z,2.50
2024-05-09T06:33:42.459Z,2.70
2024-05-09T06:43:31.176Z,2.70
2024-05-09T06:48:24.038Z,2.70
2024-05-09T06:53:17.677Z,2.60
2024-05-09T06:58:10.528Z,3.10
2024-05-09T07:03:11.113Z,2.60
2024-05-09T07:08:05.791Z,2.70
2024-05-09T07:12:58.465Z,2.40
2024-05-09T07:17:51.748Z,2.40
2024-05-09T07:22:44.604Z,2.70
2024-05-09T07:27:37.287Z,2.30
2024-05-09T07:32:30.023Z,2.10
2024-05-09T07:37:23.061Z,2.00
2024-05-09T07:42:15.623Z,1.80
2024-05-09T07:48:14.636Z,2.10
2024-05-09T07:53:30.282Z,2.30
2024-05-09T07:57:33.414Z,2.00
2024-05-09T08:02:26.243Z,1.90
2024-05-09T08:07:19.919Z,2.00
2024-05-09T08:12:14.519Z,1.80
2024-05-09T08:17:07.640Z,2.20
2024-05-09T08:22:06.614Z,2.10
2024-05-09T08:26:59.269Z,1.90
2024-05-09T08:31:55.838Z,2.10
2024-05-09T08:36:48.601Z,1.80
2024-05-09T08:41:43.535Z,2.00
2024-05-09T08:46:38.503Z,2.00
2024-05-09T08:51:31.119Z,1.80
2024-05-09T08:56:29.103Z,4.90
2024-05-09T09:01:22.951Z,2.50
2024-05-09T09:06:20.050Z,1.90
2024-05-09T09:16:06.623Z,1.90
2024-05-09T09:20:59.349Z,2.20
2024-05-09T09:25:51.919Z,2.10
2024-05-09T09:30:44.771Z,2.50
2024-05-09T09:35:39.738Z,2.30
2024-05-09T09:40:41.112Z,2.10
2024-05-09T09:45:40.940Z,1.70
2024-05-09T09:50:36.687Z,2.60
2024-05-09T09:55:33.293Z,2.00
2024-05-09T10:00:33.021Z,2.80
2024-05-09T10:05:27.170Z,1.80
2024-05-09T10:10:31.502Z,2.30
2024-05-09T10:15:25.603Z,2.20
2024-05-09T10:20:22.161Z,1.50
2024-05-09T10:25:20.942Z,1.80
2024-05-09T10:30:29.811Z,2.60
2024-05-09T10:35:32.184Z,2.10
2024-05-09T10:40:29.414Z,2.10
2024-05-09T10:45:24.644Z,1.80
2024-05-09T10:50:25.048Z,2.20
2024-05-09T10:55:21.408Z,1.80
2024-05-09T11:00:23.357Z,1.50
2024-05-09T11:05:23.083Z,1.60
2024-05-09T11:10:24.374Z,1.70
2024-05-09T11:15:20.108Z,1.80
2024-05-09T11:20:19.581Z,1.80
2024-05-09T11:25:19.351Z,2.00
2024-05-09T11:35:15.135Z,1.40
2024-05-09T11:40:13.930Z,2.10
2024-05-09T11:45:13.805Z,2.00
2024-05-09T11:50:08.243Z,1.60
2024-05-09T11:59:57.207Z,1.60
2024-05-09T12:04:49.877Z,1.30
2024-05-09T12:09:42.873Z,1.30
2024-05-09T12:14:35.519Z,1.50
2024-05-09T12:19:28.405Z,1.40
2024-05-09T12:24:21.030Z,1.50
2024-05-09T12:29:13.660Z,1.60
2024-05-09T12:34:06.314Z,1.80
2024-05-09T12:38:59.065Z,1.30
2024-05-09T12:43:51.663Z,1.30
2024-05-09T12:48:44.416Z,1.60
2024-05-09T12:53:37.230Z,1.30
2024-05-09T12:58:29.942Z,1.60
2024-05-09T13:03:22.799Z,1.70
2024-05-09T13:08:15.485Z,2.20
2024-05-09T13:13:10.481Z,1.30
2024-05-09T13:18:04.379Z,1.40
2024-05-09T13:22:57.167Z,1.60
2024-05-09T13:27:49.803Z,1.80
2024-05-09T13:32:42.687Z,1.40
2024-05-09T13:37:35.699Z,1.40
2024-05-09T13:42:28.512Z,2.10
2024-05-09T13:47:22.133Z,1.60
2024-05-09T13:52:14.924Z,1.50
2024-05-09T13:57:07.907Z,1.60
2024-05-09T14:02:00.611Z,1.60
2024-05-09T14:06:53.634Z,2.50
2024-05-09T14:11:46.310Z,2.40
2024-05-09T14:16:40.271Z,1.50
2024-05-09T14:21:33.031Z,2.10
2024-05-09T14:26:26.045Z,1.90
2024-05-09T14:31:18.697Z,1.50
2024-05-09T14:36:11.912Z,1.30
2024-05-09T14:41:06.209Z,1.70
2024-05-09T14:45:59.385Z,1.40
2024-05-09T14:50:52.444Z,1.40
2024-05-09T14:55:45.329Z,1.30
2024-05-09T15:00:44.431Z,1.40
2024-05-09T15:05:41.331Z,1.60
2024-05-09T15:10:36.238Z,1.30
2024-05-09T15:15:30.121Z,1.40
2024-05-09T15:20:32.948Z,1.40
2024-05-09T15:25:28.407Z,1.80
2024-05-09T15:35:17.999Z,1.50
2024-05-09T15:40:18.302Z,1.70
2024-05-09T15:45:15.004Z,1.70
2024-05-09T15:50:12.073Z,1.60
2024-05-09T15:55:10.904Z,1.30
2024-05-09T16:00:05.770Z,1.60
2024-05-09T16:05:05.354Z,1.60
2024-05-09T16:09:58.679Z,1.80
2024-05-09T16:14:52.321Z,1.60
2024-05-09T16:19:45.060Z,1.60
2024-05-09T16:24:37.709Z,1.40
2024-05-09T16:29:30.394Z,1.20
2024-05-09T16:34:23.106Z,1.30
2024-05-09T16:39:15.810Z,1.40
2024-05-09T16:44:08.394Z,1.70
2024-05-09T16:49:01.273Z,1.50
2024-05-09T16:53:53.928Z,1.60
2024-05-09T16:58:46.732Z,1.40
2024-05-09T17:03:39.526Z,2.30
2024-05-09T17:08:32.620Z,1.70
2024-05-09T17:13:25.255Z,1.50
2024-05-09T17:18:18.106Z,1.60
2024-05-09T17:23:13.142Z,1.30
2024-05-09T17:28:08.306Z,1.60
2024-05-09T17:33:02.053Z,1.70
2024-05-09T17:37:55.253Z,4.60
2024-05-09T17:42:47.829Z,3.00
2024-05-09T17:47:40.536Z,2.10
2024-05-09T17:52:33.236Z,2.40
2024-05-09T17:57:27.783Z,2.10
2024-05-09T18:02:20.887Z,2.50
2024-05-09T18:07:13.697Z,1.90
2024-05-09T18:12:06.671Z,2.20
2024-05-09T18:16:59.224Z,1.80
2024-05-09T18:21:51.900Z,2.20
2024-05-09T18:26:44.556Z,1.90
2024-05-09T18:31:37.791Z,1.80
2024-05-09T18:36:30.525Z,2.40
2024-05-09T18:41:23.134Z,2.30
2024-05-09T18:46:16.031Z,2.20
2024-05-09T18:51:08.769Z,3.60
2024-05-09T18:56:01.423Z,3.50
2024-05-09T19:00:55.594Z,2.70
2024-05-09T19:05:50.112Z,3.40
2024-05-09T19:10:43.048Z,3.10
2024-05-09T19:15:36.053Z,3.40
2024-05-09T19:20:33.841Z,4.10
2024-05-09T19:25:28.169Z,3.10
2024-05-09T19:30:29.373Z,3.40
2024-05-09T19:35:29.619Z,4.00
2024-05-09T19:40:28.977Z,3.40
2024-05-09T19:45:24.546Z,3.00
2024-05-09T19:50:26.618Z,3.50
2024-05-09T19:55:25.381Z,2.90
2024-05-09T20:00:22.385Z,3.70
2024-05-09T20:05:22.138Z,4.00
2024-05-09T20:10:23.723Z,3.80
2024-05-09T20:15:19.412Z,3.20
2024-05-09T20:20:23.544Z,3.00
2024-05-09T20:25:24.501Z,3.60
2024-05-09T20:30:25.125Z,3.90
2024-05-09T20:35:23.339Z,3.60
2024-05-09T20:40:25.261Z,4.20
2024-05-09T20:45:23.853Z,3.60
2024-05-09T20:50:27.378Z,3.90
2024-05-09T20:55:26.512Z,5.00
2024-05-09T21:00:25.745Z,3.90
2024-05-09T21:05:23.080Z,3.00
2024-05-09T21:10:22.296Z,3.90
2024-05-09T21:15:16.019Z,4.10
2024-05-09T21:20:14.435Z,3.40
2024-05-09T21:25:10.380Z,3.40
2024-05-09T21:30:05.852Z,2.80
2024-05-09T21:34:58.859Z,3.90
2024-05-09T21:39:51.467Z,3.30
2024-05-09T21:44:44.244Z,3.10
2024-05-09T21:49:36.848Z,3.20
2024-05-09T21:54:29.485Z,3.70
2024-05-09T21:59:22.086Z,3.70
2024-05-09T22:04:14.797Z,3.30
2024-05-09T22:09:07.474Z,3.60
2024-05-09T22:14:00.060Z,3.30
2024-05-09T22:18:52.864Z,3.40
2024-05-09T22:23:45.592Z,3.50
2024-05-09T22:28:38.177Z,3.50
2024-05-09T22:33:31.047Z,3.70
2024-05-09T22:38:23.864Z,4.10
2024-05-09T22:43:22.632Z,4.50
2024-05-09T22:48:17.129Z,3.30
2024-05-09T22:53:09.895Z,4.20
2024-05-09T22:58:02.544Z,4.40
2024-05-09T23:02:55.423Z,4.20
2024-05-09T23:07:48.422Z,3.90
2024-05-09T23:12:41.007Z,4.30
2024-05-09T23:17:33.773Z,3.70
2024-05-09T23:22:26.485Z,4.30
2024-05-09T23:27:19.175Z,4.40
2024-05-09T23:32:11.810Z,4.40
2024-05-09T23:37:04.638Z,4.90
2024-05-09T23:41:57.517Z,3.70
2024-05-09T23:46:50.239Z,4.20
2024-05-09T23:51:42.866Z,3.90
2024-05-09T23:56:35.518Z,4.50
